Time;durP1;ratioP1;P1;durP2;ratioP2;P2;SDS_P1;SDS_P2;PMS_P1;PMS_P2;Temp;Humidity;BMP_temperature;BMP_pressure;BME280_temperature;BME280_humidity;BME280_pressure;Samples;Min_cycle;Max_cycle;Signal;HPM_P1;HPM_P2
2022/08/14 03:00:35;;;;;;;;;;;29.20;37.70;;;;;;5836641;23;45848;-59
2022/08/14 03:03:01;;;;;;;;;;;29.20;37.70;;;;;;4943016;28;45747;-60
2022/08/14 03:05:30;;;;;;;;;;;29.20;37.70;;;;;;4934269;28;45650;-60
2022/08/14 03:08:09;;;;;;;;;;;29.20;37.80;;;;;;4934781;28;46103;-60
2022/08/14 03:10:35;;;;;;;;;;;29.20;37.70;;;;;;4931617;28;45512;-61
2022/08/14 03:13:03;;;;;;;;;;;29.20;37.80;;;;;;4900755;28;45167;-60
2022/08/14 03:15:52;;;;;;;;;;;29.10;37.80;;;;;;4914445;28;45558;-60
2022/08/14 03:18:17;;;;;;;;;;;29.20;37.70;;;;;;4914893;28;46317;-60
2022/08/14 03:20:46;;;;;;;;;;;29.10;37.70;;;;;;4919040;28;44651;-60
2022/08/14 03:23:13;;;;;;;;;;;29.10;37.70;;;;;;4923576;28;45125;-60
2022/08/14 03:25:39;;;;;;;;;;;29.20;37.80;;;;;;4926690;28;45166;-61
2022/08/14 03:28:05;;;;;;;;;;;29.20;37.70;;;;;;4922768;28;46072;-61
2022/08/14 03:30:31;;;;;;;;;;;29.20;37.80;;;;;;4929252;28;44800;-61
2022/08/14 03:32:57;;;;;;;;;;;29.10;37.70;;;;;;4921303;28;44990;-60
2022/08/14 03:35:22;;;;;;;;;;;29.10;37.70;;;;;;4923189;28;44873;-60
2022/08/14 03:37:51;;;;;;;;;;;29.10;37.70;;;;;;4925515;28;46818;-59
2022/08/14 03:40:20;;;;;;;;;;;29.10;37.70;;;;;;4913650;28;45112;-61
2022/08/14 03:42:45;;;;;;;;;;;29.10;37.70;;;;;;4924213;28;45273;-61
2022/08/14 03:45:11;;;;;;;;;;;29.10;37.80;;;;;;4927491;28;45228;-60
2022/08/14 03:47:39;;;;;;;;;;;29.10;37.80;;;;;;4917150;28;46668;-61
2022/08/14 03:50:09;;;;;;;;;;;29.10;37.80;;;;;;4914917;28;45555;-61
2022/08/14 03:52:38;;;;;;;;;;;29.10;37.80;;;;;;4912437;28;45529;-61
2022/08/14 03:55:05;;;;;;;;;;;29.10;37.80;;;;;;4915837;28;45620;-61
2022/08/14 03:57:32;;;;;;;;;;;29.10;37.80;;;;;;4915268;28;47172;-59
2022/08/14 03:59:58;;;;;;;;;;;29.10;37.80;;;;;;4912341;28;45268;-61
2022/08/14 04:02:24;;;;;;;;;;;29.10;37.80;;;;;;4908662;28;45329;-60
2022/08/14 04:04:49;;;;;;;;;;;29.00;37.70;;;;;;4918003;28;45497;-59
2022/08/14 04:07:16;;;;;;;;;;;29.10;37.80;;;;;;4916788;28;45420;-62
2022/08/14 04:09:41;;;;;;;;;;;29.00;37.80;;;;;;4910977;28;45301;-61
2022/08/14 04:12:07;;;;;;;;;;;29.00;37.80;;;;;;4916694;28;45319;-61
2022/08/14 04:14:32;;;;;;;;;;;29.00;37.80;;;;;;4917216;28;45268;-60
2022/08/14 04:16:58;;;;;;;;;;;29.00;37.80;;;;;;4914033;28;47085;-61
2022/08/14 04:19:23;;;;;;;;;;;29.00;37.90;;;;;;4915438;28;45544;-60
2022/08/14 04:21:49;;;;;;;;;;;29.00;37.80;;;;;;4915567;28;44997;-60
2022/08/14 04:24:16;;;;;;;;;;;29.00;37.80;;;;;;4920171;28;45413;-60
2022/08/14 04:26:43;;;;;;;;;;;29.00;37.80;;;;;;4920597;28;45733;-60
2022/08/14 04:29:12;;;;;;;;;;;29.00;37.90;;;;;;4915033;28;45348;-61
2022/08/14 04:31:38;;;;;;;;;;;29.00;37.90;;;;;;4919384;28;45643;-61
2022/08/14 04:34:04;;;;;;;;;;;29.00;37.90;;;;;;4914356;28;45142;-60
2022/08/14 04:36:30;;;;;;;;;;;29.00;37.90;;;;;;4916054;28;45162;-61
2022/08/14 04:44:23;;;;;;;;;;;29.00;37.90;;;;;;4916176;28;45219;-59
2022/08/14 04:49:35;;;;;;;;;;;29.00;37.90;;;;;;4913201;28;45196;-60
2022/08/14 04:52:03;;;;;;;;;;;29.00;37.90;;;;;;4915891;28;45039;-61
2022/08/14 04:54:29;;;;;;;;;;;28.90;37.90;;;;;;4914245;28;44980;-60
2022/08/14 04:56:54;;;;;;;;;;;29.00;37.90;;;;;;4914511;28;46065;-60
2022/08/14 04:59:20;;;;;;;;;;;29.00;38.00;;;;;;4912724;28;45187;-61
2022/08/14 05:01:46;;;;;;;;;;;29.00;38.00;;;;;;4912174;28;45275;-60
2022/08/14 05:04:11;;;;;;;;;;;29.00;38.00;;;;;;4912634;28;45218;-60
2022/08/14 05:06:37;;;;;;;;;;;29.00;38.00;;;;;;4912351;28;45921;-61
2022/08/14 05:09:03;;;;;;;;;;;29.00;38.00;;;;;;4920505;28;45411;-61
2022/08/14 05:11:32;;;;;;;;;;;29.00;38.00;;;;;;4913111;28;45361;-60
2022/08/14 05:13:58;;;;;;;;;;;29.00;38.10;;;;;;4914201;28;45441;-61
2022/08/14 05:16:29;;;;;;;;;;;29.00;38.10;;;;;;4909340;28;46185;-59
2022/08/14 05:18:55;;;;;;;;;;;28.90;38.00;;;;;;4916295;28;45466;-61
2022/08/14 05:21:21;;;;;;;;;;;29.00;38.10;;;;;;4912929;28;45024;-61
2022/08/14 05:23:46;;;;;;;;;;;29.00;38.10;;;;;;4914562;28;45190;-59
2022/08/14 05:26:14;;;;;;;;;;;28.90;38.00;;;;;;4913467;28;45544;-59
2022/08/14 05:28:43;;;;;;;;;;;29.20;37.80;;;;;;4913311;28;45349;-62
2022/08/14 05:31:09;;;;;;;;;;;29.70;36.90;;;;;;4898821;28;45518;-61
2022/08/14 05:33:35;;;;;;;;;;;30.40;36.00;;;;;;4910402;28;45268;-61
2022/08/14 05:36:02;;;;;;;;;;;31.00;35.00;;;;;;4903661;28;45983;-61
2022/08/14 05:38:32;;;;;;;;;;;31.20;34.50;;;;;;4911090;28;44892;-61
2022/08/14 05:40:58;;;;;;;;;;;30.70;35.00;;;;;;4910369;28;45638;-60
2022/08/14 05:43:24;;;;;;;;;;;30.20;35.90;;;;;;4913462;28;45217;-61
2022/08/14 05:45:55;;;;;;;;;;;29.80;36.40;;;;;;4893834;28;45273;-60
2022/08/14 05:48:20;;;;;;;;;;;29.60;36.90;;;;;;4909104;28;45518;-61
2022/08/14 05:50:46;;;;;;;;;;;29.40;37.10;;;;;;4906934;28;45300;-61
2022/08/14 05:53:11;;;;;;;;;;;29.30;37.40;;;;;;4911085;28;45663;-60
2022/08/14 05:55:37;;;;;;;;;;;29.30;37.50;;;;;;4909971;28;46515;-59
2022/08/14 05:58:03;;;;;;;;;;;29.20;37.50;;;;;;4889580;28;45864;-60
2022/08/14 06:00:30;;;;;;;;;;;29.20;37.60;;;;;;4883769;28;45292;-61
2022/08/14 06:02:58;;;;;;;;;;;29.20;37.60;;;;;;4889985;28;46249;-60
2022/08/14 06:05:24;;;;;;;;;;;29.20;37.60;;;;;;4888700;28;45980;-60
2022/08/14 06:07:50;;;;;;;;;;;29.20;37.60;;;;;;4890095;28;45782;-61
2022/08/14 06:10:15;;;;;;;;;;;29.20;37.60;;;;;;4886975;28;45269;-61
2022/08/14 06:12:41;;;;;;;;;;;29.20;37.60;;;;;;4890612;28;45636;-62
2022/08/14 06:15:07;;;;;;;;;;;29.30;37.60;;;;;;4888362;28;46074;-60
2022/08/14 06:17:41;;;;;;;;;;;29.30;37.60;;;;;;4887145;28;45483;-61
2022/08/14 06:20:07;;;;;;;;;;;29.30;37.50;;;;;;4889337;28;45393;-60
2022/08/14 06:22:33;;;;;;;;;;;29.40;37.40;;;;;;4888734;28;45700;-61
2022/08/14 06:24:58;;;;;;;;;;;29.50;37.30;;;;;;4891197;28;46033;-61
2022/08/14 06:27:24;;;;;;;;;;;29.60;37.20;;;;;;4888852;28;45025;-61
2022/08/14 06:29:49;;;;;;;;;;;29.60;37.00;;;;;;4902487;28;46365;-60
2022/08/14 06:32:15;;;;;;;;;;;29.70;36.90;;;;;;4900036;28;45988;-61
2022/08/14 06:34:40;;;;;;;;;;;29.80;36.80;;;;;;4902941;28;47009;-61
2022/08/14 06:37:06;;;;;;;;;;;29.80;36.70;;;;;;4901961;28;45493;-60
2022/08/14 06:39:32;;;;;;;;;;;29.80;36.70;;;;;;4902519;28;45456;-60
2022/08/14 06:41:58;;;;;;;;;;;29.80;37.10;;;;;;4899787;28;45375;-61
2022/08/14 06:44:24;;;;;;;;;;;29.80;37.60;;;;;;4899588;28;45954;-59
2022/08/14 06:46:49;;;;;;;;;;;29.70;38.50;;;;;;4903301;28;45596;-61
2022/08/14 06:49:15;;;;;;;;;;;29.70;39.10;;;;;;4900712;28;45450;-60
2022/08/14 06:51:45;;;;;;;;;;;29.60;39.80;;;;;;4902933;28;45544;-59
2022/08/14 06:54:14;;;;;;;;;;;29.60;40.50;;;;;;4900960;28;46158;-61
2022/08/14 06:56:39;;;;;;;;;;;29.60;40.90;;;;;;4903364;28;45715;-61
2022/08/14 06:59:04;;;;;;;;;;;29.50;41.20;;;;;;4906888;28;46485;-60
2022/08/14 07:06:58;;;;;;;;;;;29.50;41.70;;;;;;4906618;28;45639;-61
2022/08/14 07:09:24;;;;;;;;;;;29.60;42.00;;;;;;4906577;28;45493;-62
2022/08/14 07:11:50;;;;;;;;;;;29.60;42.00;;;;;;4904897;28;45697;-61
2022/08/14 07:14:15;;;;;;;;;;;29.60;42.20;;;;;;4921074;28;46859;-61
2022/08/14 07:16:41;;;;;;;;;;;29.60;42.10;;;;;;4903554;28;45296;-61
2022/08/14 07:19:08;;;;;;;;;;;29.60;42.40;;;;;;4905887;28;45671;-60
2022/08/14 07:21:34;;;;;;;;;;;29.60;42.50;;;;;;4904830;28;45442;-60
2022/08/14 07:23:59;;;;;;;;;;;29.60;42.50;;;;;;4906291;28;47036;-61
2022/08/14 07:26:25;;;;;;;;;;;29.50;42.60;;;;;;4906381;28;44816;-61
2022/08/14 07:28:50;;;;;;;;;;;29.50;42.50;;;;;;4905277;28;45646;-61
2022/08/14 07:31:16;;;;;;;;;;;29.60;42.80;;;;;;4903661;28;45755;-60
2022/08/14 07:33:43;;;;;;;;;;;29.60;42.80;;;;;;4905938;28;45278;-61
2022/08/14 07:36:09;;;;;;;;;;;29.50;42.70;;;;;;4905196;28;45503;-61
2022/08/14 07:38:35;;;;;;;;;;;29.60;42.90;;;;;;4907400;28;45338;-60
2022/08/14 07:41:00;;;;;;;;;;;29.60;42.70;;;;;;4900837;28;45414;-61
2022/08/14 07:43:26;;;;;;;;;;;29.60;42.70;;;;;;4894926;28;45621;-60
2022/08/14 07:45:52;;;;;;;;;;;29.60;42.80;;;;;;4901959;28;45585;-60
2022/08/14 07:48:18;;;;;;;;;;;29.60;42.80;;;;;;4903286;28;45534;-60
2022/08/14 07:50:44;;;;;;;;;;;29.60;42.80;;;;;;4899335;28;45725;-60
2022/08/14 07:53:11;;;;;;;;;;;29.60;42.70;;;;;;4900096;28;45684;-61
2022/08/14 07:55:37;;;;;;;;;;;29.60;43.10;;;;;;4901871;28;45710;-59
2022/08/14 07:58:02;;;;;;;;;;;29.60;42.50;;;;;;4901694;28;45613;-61
2022/08/14 08:00:29;;;;;;;;;;;29.60;42.50;;;;;;4899740;28;45283;-61
2022/08/14 08:02:54;;;;;;;;;;;29.60;42.50;;;;;;4900048;28;46041;-61
2022/08/14 08:05:20;;;;;;;;;;;29.60;42.50;;;;;;4897119;28;45333;-60
2022/08/14 08:07:46;;;;;;;;;;;29.60;42.40;;;;;;4900564;28;45258;-60
2022/08/14 08:10:30;;;;;;;;;;;29.70;42.30;;;;;;4901876;28;44902;-62
2022/08/14 08:12:56;;;;;;;;;;;29.70;42.30;;;;;;4901735;28;45500;-61
2022/08/14 08:15:25;;;;;;;;;;;29.70;42.40;;;;;;4902622;28;45815;-60
2022/08/14 08:17:50;;;;;;;;;;;29.70;42.20;;;;;;4900098;28;46127;-61
2022/08/14 08:20:21;;;;;;;;;;;29.80;42.20;;;;;;4898662;28;45549;-61
2022/08/14 08:22:47;;;;;;;;;;;29.80;42.10;;;;;;4898509;28;45238;-60
2022/08/14 08:25:13;;;;;;;;;;;29.80;42.00;;;;;;4901367;28;45818;-62
2022/08/14 08:27:39;;;;;;;;;;;29.80;42.10;;;;;;4901717;28;46214;-61
2022/08/14 08:30:08;;;;;;;;;;;29.80;42.10;;;;;;4900757;28;45461;-60
2022/08/14 08:32:40;;;;;;;;;;;29.90;41.90;;;;;;4904754;28;45634;-61
2022/08/14 08:35:09;;;;;;;;;;;29.90;42.00;;;;;;4901348;28;45715;-61
2022/08/14 08:37:35;;;;;;;;;;;29.90;41.90;;;;;;4902442;28;45581;-61
2022/08/14 08:40:00;;;;;;;;;;;30.00;41.90;;;;;;4900010;28;45402;-62
2022/08/14 08:42:26;;;;;;;;;;;30.00;41.80;;;;;;4902603;28;45696;-60
2022/08/14 08:44:54;;;;;;;;;;;30.00;41.70;;;;;;4904046;28;45729;-60
2022/08/14 08:47:20;;;;;;;;;;;30.00;41.60;;;;;;4899468;28;45835;-61
2022/08/14 08:49:45;;;;;;;;;;;30.00;41.50;;;;;;4903640;28;45829;-60
2022/08/14 08:52:11;;;;;;;;;;;30.10;41.50;;;;;;4899191;28;45967;-60
2022/08/14 08:54:37;;;;;;;;;;;30.10;41.40;;;;;;4904810;28;45314;-60
2022/08/14 08:57:08;;;;;;;;;;;30.10;41.20;;;;;;4902261;28;45765;-61
2022/08/14 08:59:34;;;;;;;;;;;30.10;41.00;;;;;;4903841;28;45103;-60
2022/08/14 09:02:00;;;;;;;;;;;30.10;40.90;;;;;;4863385;28;1107122;-60
2022/08/14 09:04:26;;;;;;;;;;;30.10;40.90;;;;;;4901538;28;46176;-61
2022/08/14 09:06:52;;;;;;;;;;;30.20;41.30;;;;;;4903398;28;45488;-61
2022/08/14 09:09:27;;;;;;;;;;;30.20;40.60;;;;;;4903768;28;46695;-61
2022/08/14 09:11:53;;;;;;;;;;;30.20;40.40;;;;;;4902521;28;45276;-61
2022/08/14 09:14:20;;;;;;;;;;;30.30;40.40;;;;;;4902790;28;45867;-60
2022/08/14 09:16:45;;;;;;;;;;;30.20;40.30;;;;;;4918990;28;45715;-60
2022/08/14 09:19:11;;;;;;;;;;;30.30;40.30;;;;;;4903023;28;45599;-61
2022/08/14 09:21:37;;;;;;;;;;;30.30;40.20;;;;;;4900642;28;46063;-59
2022/08/14 09:24:03;;;;;;;;;;;30.30;40.30;;;;;;4902876;28;45636;-62
2022/08/14 09:26:29;;;;;;;;;;;30.30;40.10;;;;;;4903732;28;44953;-60
2022/08/14 09:28:54;;;;;;;;;;;30.40;39.90;;;;;;4902617;28;45674;-60
2022/08/14 09:31:20;;;;;;;;;;;30.40;39.80;;;;;;4900626;28;46148;-60
2022/08/14 09:34:05;;;;;;;;;;;30.40;39.80;;;;;;4902098;28;45013;-61
2022/08/14 09:36:53;;;;;;;;;;;30.40;39.70;;;;;;4903472;28;46387;-59
2022/08/14 09:39:45;;;;;;;;;;;30.40;39.50;;;;;;4878802;28;45924;-61
2022/08/14 09:42:16;;;;;;;;;;;30.40;39.60;;;;;;4897112;28;45228;-61
2022/08/14 09:44:49;;;;;;;;;;;30.40;39.40;;;;;;4904135;28;46375;-61
2022/08/14 09:47:15;;;;;;;;;;;30.50;39.40;;;;;;4901256;28;45761;-62
2022/08/14 09:49:41;;;;;;;;;;;30.50;39.20;;;;;;4905484;28;45773;-61
2022/08/14 09:52:07;;;;;;;;;;;30.60;39.20;;;;;;4901706;28;47234;-61
2022/08/14 09:54:37;;;;;;;;;;;30.60;38.80;;;;;;4903288;28;45160;-61
2022/08/14 09:57:06;;;;;;;;;;;30.60;38.50;;;;;;4886855;28;45607;-61
2022/08/14 09:59:42;;;;;;;;;;;30.60;38.60;;;;;;4900872;28;45743;-61
2022/08/14 10:02:20;;;;;;;;;;;30.60;38.40;;;;;;4899130;28;46291;-61
2022/08/14 10:04:47;;;;;;;;;;;30.60;38.50;;;;;;4886014;28;45347;-59
2022/08/14 10:07:13;;;;;;;;;;;30.70;38.50;;;;;;4901248;28;45503;-60
2022/08/14 10:09:48;;;;;;;;;;;30.70;38.40;;;;;;4903739;28;45561;-59
2022/08/14 10:12:13;;;;;;;;;;;30.70;38.30;;;;;;4878762;28;45341;-59
2022/08/14 10:14:40;;;;;;;;;;;30.70;38.20;;;;;;4901660;28;45072;-61
2022/08/14 10:17:06;;;;;;;;;;;30.70;38.20;;;;;;4905179;28;45324;-61
2022/08/14 10:19:31;;;;;;;;;;;30.70;38.00;;;;;;4901384;28;45224;-61
2022/08/14 10:21:59;;;;;;;;;;;30.70;38.00;;;;;;4901897;28;45754;-59
2022/08/14 10:24:26;;;;;;;;;;;30.80;38.00;;;;;;4893533;28;45778;-60
2022/08/14 10:26:53;;;;;;;;;;;30.80;37.90;;;;;;4903076;28;45451;-60
2022/08/14 10:29:28;;;;;;;;;;;30.80;37.90;;;;;;4884431;28;45033;-60
2022/08/14 10:31:58;;;;;;;;;;;30.90;38.00;;;;;;4900367;28;45813;-60
2022/08/14 10:34:29;;;;;;;;;;;30.80;37.80;;;;;;4900645;28;45546;-60
2022/08/14 10:37:00;;;;;;;;;;;30.90;37.80;;;;;;4901899;28;45943;-59
2022/08/14 10:39:25;;;;;;;;;;;30.90;37.80;;;;;;4902653;28;46369;-59
2022/08/14 10:42:04;;;;;;;;;;;31.00;37.90;;;;;;4901313;28;46914;-60
2022/08/14 10:44:56;;;;;;;;;;;31.00;37.80;;;;;;4900734;28;45012;-59
2022/08/14 10:47:21;;;;;;;;;;;31.00;37.70;;;;;;4897264;28;45607;-59
2022/08/14 10:49:56;;;;;;;;;;;31.00;37.60;;;;;;4901449;28;45828;-60
2022/08/14 10:52:23;;;;;;;;;;;31.00;37.60;;;;;;4901225;28;45097;-61
2022/08/14 10:54:48;;;;;;;;;;;31.00;37.60;;;;;;4901946;28;45348;-60
2022/08/14 10:57:21;;;;;;;;;;;31.00;37.50;;;;;;4900729;28;45644;-59
2022/08/14 10:59:48;;;;;;;;;;;31.10;37.50;;;;;;4901976;28;45089;-60
2022/08/14 11:02:19;;;;;;;;;;;31.10;38.10;;;;;;4900253;28;45695;-59
2022/08/14 11:04:56;;;;;;;;;;;31.10;37.60;;;;;;4900698;28;46055;-60
2022/08/14 11:07:21;;;;;;;;;;;31.10;37.40;;;;;;4900604;28;46273;-60
2022/08/14 11:09:57;;;;;;;;;;;31.10;37.30;;;;;;4900735;28;45761;-61
2022/08/14 11:12:26;;;;;;;;;;;31.20;37.20;;;;;;4898241;28;45980;-59
2022/08/14 11:14:52;;;;;;;;;;;31.20;37.20;;;;;;4901201;28;45486;-59
2022/08/14 11:17:17;;;;;;;;;;;31.20;37.20;;;;;;4905264;28;45802;-60
2022/08/14 11:19:43;;;;;;;;;;;31.20;37.20;;;;;;4901128;28;45730;-58
2022/08/14 11:22:10;;;;;;;;;;;31.20;37.20;;;;;;4899711;28;45298;-61
2022/08/14 11:24:35;;;;;;;;;;;31.20;37.10;;;;;;4902072;28;45133;-59
2022/08/14 11:27:01;;;;;;;;;;;31.20;36.90;;;;;;4902994;28;44992;-60
2022/08/14 11:29:26;;;;;;;;;;;31.20;36.90;;;;;;4899812;28;45737;-61
2022/08/14 11:31:53;;;;;;;;;;;31.20;36.80;;;;;;4891959;28;46197;-60
2022/08/14 11:34:18;;;;;;;;;;;31.20;36.70;;;;;;4900266;28;46277;-60
2022/08/14 11:36:44;;;;;;;;;;;31.20;36.60;;;;;;4901762;28;45012;-59
2022/08/14 11:39:16;;;;;;;;;;;31.20;36.50;;;;;;4896292;28;44954;-60
2022/08/14 11:41:45;;;;;;;;;;;31.20;36.30;;;;;;4898934;28;45774;-59
2022/08/14 11:44:10;;;;;;;;;;;31.20;36.20;;;;;;4904121;28;45355;-60
2022/08/14 11:46:35;;;;;;;;;;;31.20;36.10;;;;;;4905816;28;45214;-61
2022/08/14 11:49:01;;;;;;;;;;;31.20;36.00;;;;;;4905495;28;46490;-61
2022/08/14 11:51:27;;;;;;;;;;;31.20;36.00;;;;;;4903642;28;46461;-61
2022/08/14 11:53:53;;;;;;;;;;;31.30;36.10;;;;;;4904593;28;45193;-60
2022/08/14 11:56:19;;;;;;;;;;;31.30;36.00;;;;;;4903869;28;45127;-61
2022/08/14 11:58:48;;;;;;;;;;;31.30;35.90;;;;;;4889874;28;45605;-60
2022/08/14 12:01:14;;;;;;;;;;;31.30;35.70;;;;;;4901191;28;46951;-60
2022/08/14 12:03:39;;;;;;;;;;;31.30;35.70;;;;;;4906798;28;45213;-60
2022/08/14 12:06:05;;;;;;;;;;;31.30;35.70;;;;;;4903424;28;45488;-60
2022/08/14 12:08:32;;;;;;;;;;;31.30;35.70;;;;;;4905796;28;46258;-60
2022/08/14 12:10:57;;;;;;;;;;;31.30;35.70;;;;;;4902859;28;46397;-59
2022/08/14 12:13:23;;;;;;;;;;;31.30;35.60;;;;;;4903501;28;45695;-58
2022/08/14 12:15:55;;;;;;;;;;;31.30;35.60;;;;;;4902117;28;45503;-60
2022/08/14 12:18:34;;;;;;;;;;;31.30;35.50;;;;;;4904358;28;45736;-60
2022/08/14 12:21:29;;;;;;;;;;;31.40;35.60;;;;;;4904638;28;45998;-60
2022/08/14 12:24:07;;;;;;;;;;;31.30;35.40;;;;;;4895171;28;45609;-60
2022/08/14 12:26:33;;;;;;;;;;;31.40;35.40;;;;;;4903476;28;45433;-59
2022/08/14 12:29:15;;;;;;;;;;;31.40;35.40;;;;;;4902811;28;45489;-60
2022/08/14 12:31:41;;;;;;;;;;;31.40;35.30;;;;;;4898781;28;46078;-60
2022/08/14 12:34:10;;;;;;;;;;;31.40;35.30;;;;;;4904789;28;45284;-61
2022/08/14 12:36:36;;;;;;;;;;;31.40;35.20;;;;;;4905072;28;44764;-59
2022/08/14 12:39:06;;;;;;;;;;;31.40;35.20;;;;;;4902774;28;45697;-59
2022/08/14 12:41:34;;;;;;;;;;;31.40;35.10;;;;;;4901475;28;47187;-59
2022/08/14 12:44:00;;;;;;;;;;;31.50;35.20;;;;;;4882268;28;45778;-58
2022/08/14 12:46:27;;;;;;;;;;;31.50;35.20;;;;;;4902588;28;45520;-60
2022/08/14 12:48:52;;;;;;;;;;;31.50;35.20;;;;;;4905060;28;45490;-60
2022/08/14 12:51:20;;;;;;;;;;;31.50;35.20;;;;;;4905166;28;46007;-61
2022/08/14 12:53:46;;;;;;;;;;;31.50;35.20;;;;;;4903961;28;45218;-61
2022/08/14 12:56:12;;;;;;;;;;;31.50;35.20;;;;;;4894698;28;45813;-60
2022/08/14 12:58:41;;;;;;;;;;;31.60;35.10;;;;;;4895769;28;45407;-60
2022/08/14 13:01:07;;;;;;;;;;;31.60;35.00;;;;;;4899996;28;46007;-61
2022/08/14 13:03:33;;;;;;;;;;;31.60;35.50;;;;;;4902462;28;45416;-61
2022/08/14 13:05:59;;;;;;;;;;;31.60;34.90;;;;;;4901798;28;45652;-61
2022/08/14 13:08:25;;;;;;;;;;;31.60;34.90;;;;;;4896686;28;45716;-60
2022/08/14 13:10:50;;;;;;;;;;;31.60;35.50;;;;;;4897498;28;45144;-61
2022/08/14 13:13:16;;;;;;;;;;;31.50;34.70;;;;;;4901124;28;45339;-60
2022/08/14 13:15:44;;;;;;;;;;;31.50;34.70;;;;;;4900501;28;45884;-61
2022/08/14 13:18:11;;;;;;;;;;;31.60;34.70;;;;;;4898413;28;45545;-60
2022/08/14 13:20:36;;;;;;;;;;;31.60;34.70;;;;;;4898918;28;46211;-61
2022/08/14 13:23:02;;;;;;;;;;;31.60;34.50;;;;;;4896772;28;45749;-61
2022/08/14 13:25:28;;;;;;;;;;;31.60;34.40;;;;;;4899798;28;45061;-61
2022/08/14 13:27:54;;;;;;;;;;;31.60;34.40;;;;;;4899203;28;45864;-60
2022/08/14 13:30:22;;;;;;;;;;;31.60;34.30;;;;;;4899086;28;45591;-61
2022/08/14 13:32:47;;;;;;;;;;;31.60;34.20;;;;;;4898492;28;45866;-61
2022/08/14 13:35:14;;;;;;;;;;;31.60;34.10;;;;;;4900423;28;45905;-60
2022/08/14 13:37:40;;;;;;;;;;;31.60;34.00;;;;;;4892342;28;46325;-61
2022/08/14 13:40:06;;;;;;;;;;;31.60;34.00;;;;;;4891810;28;45487;-61
2022/08/14 13:42:32;;;;;;;;;;;31.60;34.00;;;;;;4901029;28;45676;-61
2022/08/14 13:44:58;;;;;;;;;;;31.60;33.90;;;;;;4901632;28;45639;-61
2022/08/14 13:47:28;;;;;;;;;;;31.60;33.90;;;;;;4897968;28;45327;-61
2022/08/14 13:49:54;;;;;;;;;;;31.70;33.80;;;;;;4895881;28;46107;-60
2022/08/14 13:52:20;;;;;;;;;;;31.60;33.70;;;;;;4898706;28;45571;-60
2022/08/14 13:54:46;;;;;;;;;;;31.60;33.70;;;;;;4899179;28;45775;-62
2022/08/14 13:57:12;;;;;;;;;;;31.60;33.80;;;;;;4897506;28;45572;-61
2022/08/14 13:59:38;;;;;;;;;;;31.60;33.70;;;;;;4900000;28;48201;-61
2022/08/14 14:02:04;;;;;;;;;;;31.70;33.90;;;;;;4897474;28;45863;-61
2022/08/14 14:04:30;;;;;;;;;;;31.70;33.90;;;;;;4899686;28;46037;-61
2022/08/14 14:06:55;;;;;;;;;;;31.70;33.90;;;;;;4898125;28;45512;-60
2022/08/14 14:09:28;;;;;;;;;;;31.70;33.80;;;;;;4893242;28;45669;-61
2022/08/14 14:11:54;;;;;;;;;;;31.70;33.90;;;;;;4897350;28;45057;-61
2022/08/14 14:14:20;;;;;;;;;;;31.70;33.80;;;;;;4900717;28;45337;-61
2022/08/14 14:16:46;;;;;;;;;;;31.70;33.90;;;;;;4899535;28;45959;-61
2022/08/14 14:19:12;;;;;;;;;;;31.70;33.80;;;;;;4901687;28;45574;-61
2022/08/14 14:21:37;;;;;;;;;;;31.70;33.80;;;;;;4900061;28;45616;-61
2022/08/14 14:24:04;;;;;;;;;;;31.70;33.70;;;;;;4901122;28;45560;-61
2022/08/14 14:26:29;;;;;;;;;;;31.70;33.70;;;;;;4904387;28;45475;-61
2022/08/14 14:28:55;;;;;;;;;;;31.70;33.70;;;;;;4903025;28;45695;-61
2022/08/14 14:31:23;;;;;;;;;;;31.70;33.60;;;;;;4903789;28;45824;-61
2022/08/14 14:33:50;;;;;;;;;;;31.70;33.60;;;;;;4903454;28;45659;-61
2022/08/14 14:36:23;;;;;;;;;;;31.70;33.40;;;;;;4899866;28;45668;-61
2022/08/14 14:38:50;;;;;;;;;;;31.70;33.50;;;;;;4903617;28;45337;-61
2022/08/14 14:41:19;;;;;;;;;;;31.70;33.50;;;;;;4903302;28;45402;-61
2022/08/14 14:43:44;;;;;;;;;;;31.70;33.50;;;;;;4893663;28;45945;-61
2022/08/14 14:46:11;;;;;;;;;;;31.70;34.20;;;;;;4905120;28;46139;-61
2022/08/14 14:48:43;;;;;;;;;;;31.70;33.60;;;;;;4901514;28;45595;-61
2022/08/14 14:51:12;;;;;;;;;;;31.80;33.60;;;;;;4902780;28;45530;-61
2022/08/14 14:53:41;;;;;;;;;;;31.80;33.70;;;;;;4903245;28;45287;-61
2022/08/14 14:56:09;;;;;;;;;;;31.70;33.70;;;;;;4901617;28;45745;-60
2022/08/14 14:58:38;;;;;;;;;;;31.70;33.70;;;;;;4902879;28;45333;-61
2022/08/14 15:01:04;;;;;;;;;;;31.80;33.70;;;;;;4896152;28;45665;-61
2022/08/14 15:03:29;;;;;;;;;;;31.80;33.60;;;;;;4887903;28;45671;-61
2022/08/14 15:05:56;;;;;;;;;;;31.80;33.50;;;;;;4900999;28;45126;-61
2022/08/14 15:08:21;;;;;;;;;;;31.80;33.50;;;;;;4901984;28;45578;-61
2022/08/14 15:10:47;;;;;;;;;;;31.80;33.40;;;;;;4904538;28;45809;-61
2022/08/14 15:13:12;;;;;;;;;;;31.80;33.40;;;;;;4901726;28;45007;-60
2022/08/14 15:15:37;;;;;;;;;;;31.80;33.30;;;;;;4902310;28;45282;-61
2022/08/14 15:18:04;;;;;;;;;;;31.80;33.30;;;;;;4905787;28;46460;-60
2022/08/14 15:20:29;;;;;;;;;;;31.80;33.10;;;;;;4904563;28;46138;-61
2022/08/14 15:22:55;;;;;;;;;;;31.80;33.00;;;;;;4904708;28;45281;-61
2022/08/14 15:25:20;;;;;;;;;;;31.80;33.10;;;;;;4906639;28;45627;-61
2022/08/14 15:27:48;;;;;;;;;;;31.80;33.10;;;;;;4905857;28;46308;-60
2022/08/14 15:30:14;;;;;;;;;;;31.80;33.20;;;;;;4905474;28;45534;-61
2022/08/14 15:32:39;;;;;;;;;;;31.80;33.10;;;;;;4903442;28;45713;-62
2022/08/14 15:35:05;;;;;;;;;;;31.80;33.10;;;;;;4904925;28;45906;-62
2022/08/14 15:37:31;;;;;;;;;;;31.70;33.20;;;;;;4903993;28;45581;-61
2022/08/14 15:39:57;;;;;;;;;;;31.70;33.30;;;;;;4904669;28;45279;-62
2022/08/14 15:42:23;;;;;;;;;;;31.70;33.30;;;;;;4904912;28;45117;-61
2022/08/14 15:44:49;;;;;;;;;;;31.70;33.40;;;;;;4905909;28;45626;-62
2022/08/14 15:47:14;;;;;;;;;;;31.70;33.30;;;;;;4905593;28;45548;-61
2022/08/14 15:49:40;;;;;;;;;;;31.70;33.20;;;;;;4905353;28;45128;-61
2022/08/14 15:52:06;;;;;;;;;;;31.70;33.20;;;;;;4904456;28;45321;-62
2022/08/14 15:54:32;;;;;;;;;;;31.70;33.20;;;;;;4904550;28;45650;-62
2022/08/14 15:56:58;;;;;;;;;;;31.70;33.10;;;;;;4904823;28;45572;-62
2022/08/14 15:59:24;;;;;;;;;;;31.70;33.10;;;;;;4902094;28;45640;-62
2022/08/14 16:01:51;;;;;;;;;;;31.70;33.20;;;;;;4901576;28;46259;-61
2022/08/14 16:04:22;;;;;;;;;;;31.70;33.20;;;;;;4904778;28;45649;-61
2022/08/14 16:06:48;;;;;;;;;;;31.70;33.20;;;;;;4895993;28;47689;-61
2022/08/14 16:09:14;;;;;;;;;;;31.70;33.20;;;;;;4901595;28;45619;-61
2022/08/14 16:11:39;;;;;;;;;;;31.70;33.30;;;;;;4904833;28;45340;-59
2022/08/14 16:14:05;;;;;;;;;;;31.70;33.20;;;;;;4903992;28;45696;-62
2022/08/14 16:16:30;;;;;;;;;;;31.70;33.10;;;;;;4903909;28;46330;-62
2022/08/14 16:18:57;;;;;;;;;;;31.70;33.10;;;;;;4904301;28;46218;-62
2022/08/14 16:21:23;;;;;;;;;;;31.80;33.20;;;;;;4904805;28;45609;-61
2022/08/14 16:23:49;;;;;;;;;;;31.80;33.30;;;;;;4904857;28;46401;-59
2022/08/14 16:26:19;;;;;;;;;;;31.80;33.30;;;;;;4901145;28;46337;-62
2022/08/14 16:28:48;;;;;;;;;;;31.80;33.30;;;;;;4901833;28;46319;-61
2022/08/14 16:31:14;;;;;;;;;;;31.70;33.30;;;;;;4902216;28;45512;-60
2022/08/14 16:33:40;;;;;;;;;;;31.70;33.40;;;;;;4904771;28;46399;-62
2022/08/14 16:36:05;;;;;;;;;;;31.70;33.50;;;;;;4887682;28;46749;-61
2022/08/14 16:38:34;;;;;;;;;;;31.70;33.40;;;;;;4903702;28;45642;-62
2022/08/14 16:41:16;;;;;;;;;;;31.70;33.50;;;;;;4862084;28;46264;-62
2022/08/14 16:43:45;;;;;;;;;;;31.70;33.50;;;;;;4903414;28;44826;-61
2022/08/14 16:46:14;;;;;;;;;;;31.70;33.50;;;;;;4901737;28;45992;-62
2022/08/14 16:48:40;;;;;;;;;;;31.70;33.60;;;;;;4905462;28;45520;-62
2022/08/14 16:51:05;;;;;;;;;;;31.70;33.60;;;;;;4903129;28;45631;-61
2022/08/14 16:53:32;;;;;;;;;;;31.70;33.60;;;;;;4904688;28;45110;-60
2022/08/14 16:56:13;;;;;;;;;;;31.70;33.70;;;;;;4903925;28;45590;-62
2022/08/14 16:58:39;;;;;;;;;;;31.70;33.70;;;;;;4905136;28;45229;-62
2022/08/14 17:01:18;;;;;;;;;;;31.70;33.90;;;;;;4900744;28;45463;-61
2022/08/14 17:03:50;;;;;;;;;;;31.70;33.80;;;;;;4903485;28;45632;-62
2022/08/14 17:06:23;;;;;;;;;;;31.60;33.80;;;;;;4903488;28;46073;-60
2022/08/14 17:08:49;;;;;;;;;;;31.60;33.80;;;;;;4918491;28;45145;-61
2022/08/14 17:11:14;;;;;;;;;;;31.60;33.80;;;;;;4903514;28;45587;-62
2022/08/14 17:13:41;;;;;;;;;;;31.60;33.80;;;;;;4903324;28;46094;-61
2022/08/14 17:16:13;;;;;;;;;;;31.60;33.80;;;;;;4902757;28;45271;-61
2022/08/14 17:18:40;;;;;;;;;;;31.60;33.80;;;;;;4904723;28;45990;-62
2022/08/14 17:21:15;;;;;;;;;;;31.60;33.80;;;;;;4916371;28;45581;-61
2022/08/14 17:23:40;;;;;;;;;;;31.60;33.80;;;;;;4903345;28;45422;-61
2022/08/14 17:26:06;;;;;;;;;;;31.60;33.80;;;;;;4901497;28;45031;-61
2022/08/14 17:28:31;;;;;;;;;;;31.60;33.80;;;;;;4902109;28;45684;-63
2022/08/14 17:30:58;;;;;;;;;;;31.60;33.80;;;;;;4901446;28;45664;-61